createdAt,value
2024-01-06T00:00:50.698Z,19.20
2024-01-06T00:02:48.846Z,17.23
2024-01-06T00:04:47.344Z,16.63
2024-01-06T00:06:45.492Z,16.88
2024-01-06T00:08:43.420Z,29.60
2024-01-06T00:10:41.266Z,27.33
2024-01-06T00:12:39.389Z,25.50
2024-01-06T00:14:37.460Z,15.52
2024-01-06T00:16:35.496Z,14.63
2024-01-06T00:18:33.668Z,15.75
2024-01-06T00:20:32.154Z,15.85
2024-01-06T00:22:30.137Z,13.38
2024-01-06T00:24:28.955Z,15.50
2024-01-06T00:26:25.921Z,22.75
2024-01-06T00:28:23.993Z,18.38
2024-01-06T00:30:21.935Z,14.93
2024-01-06T00:32:20.075Z,15.52
2024-01-06T00:34:17.127Z,14.50
2024-01-06T00:36:16.584Z,16.20
2024-01-06T00:38:14.643Z,13.43
2024-01-06T00:40:13.172Z,14.70
2024-01-06T00:42:11.302Z,14.00
2024-01-06T00:44:09.361Z,14.48
2024-01-06T00:46:07.295Z,14.02
2024-01-06T00:48:05.882Z,14.73
2024-01-06T00:50:03.909Z,16.05
2024-01-06T00:52:03.483Z,14.88
2024-01-06T00:54:01.567Z,9.77
2024-01-06T00:55:58.616Z,10.98
2024-01-06T00:57:56.602Z,15.30
2024-01-06T00:59:54.643Z,14.00
2024-01-06T01:01:52.695Z,13.38
2024-01-06T01:03:50.994Z,12.07
2024-01-06T01:05:48.996Z,13.13
2024-01-06T01:07:47.620Z,13.43
2024-01-06T01:09:45.570Z,12.32
2024-01-06T01:11:45.428Z,12.43
2024-01-06T01:13:43.466Z,11.30
2024-01-06T01:15:40.596Z,13.85
2024-01-06T01:17:39.420Z,12.25
2024-01-06T01:19:37.519Z,11.60
2024-01-06T01:21:35.669Z,11.93
2024-01-06T01:23:35.049Z,12.43
2024-01-06T01:25:33.063Z,12.93
2024-01-06T01:27:31.025Z,13.00
2024-01-06T01:29:28.030Z,13.57
2024-01-06T01:31:26.220Z,12.75
2024-01-06T01:33:23.398Z,13.40
2024-01-06T01:35:21.458Z,15.07
2024-01-06T01:37:19.413Z,12.48
2024-01-06T01:39:19.099Z,14.07
2024-01-06T01:41:17.294Z,12.93
2024-01-06T01:43:19.193Z,13.68
2024-01-06T01:45:17.314Z,12.43
2024-01-06T01:47:16.240Z,12.00
2024-01-06T01:49:14.292Z,11.60
2024-01-06T01:51:12.433Z,13.35
2024-01-06T01:53:10.597Z,12.57
2024-01-06T01:55:10.472Z,11.88
2024-01-06T01:57:08.535Z,11.38
2024-01-06T01:59:08.003Z,12.68
2024-01-06T02:01:06.219Z,12.10
2024-01-06T02:03:05.510Z,12.38
2024-01-06T02:05:03.687Z,12.70
2024-01-06T02:07:01.689Z,14.93
2024-01-06T02:08:59.692Z,14.32
2024-01-06T02:10:59.098Z,12.43
2024-01-06T02:12:57.378Z,13.13
2024-01-06T02:14:55.406Z,13.60
2024-01-06T02:16:53.473Z,13.52
2024-01-06T02:18:50.961Z,12.10
2024-01-06T02:20:50.427Z,13.57
2024-01-06T02:22:50.194Z,13.90
2024-01-06T02:24:47.352Z,12.63
2024-01-06T02:26:45.444Z,14.27
2024-01-06T02:28:46.057Z,12.75
2024-01-06T02:30:44.240Z,12.80
2024-01-06T02:32:42.388Z,12.27
2024-01-06T02:34:40.581Z,13.45
2024-01-06T02:36:38.842Z,14.55
2024-01-06T02:38:38.224Z,13.38
2024-01-06T02:40:36.235Z,11.43
2024-01-06T02:42:34.169Z,14.38
2024-01-06T02:44:32.234Z,12.98
2024-01-06T02:46:30.148Z,13.77
2024-01-06T02:48:27.487Z,13.40
2024-01-06T02:50:25.446Z,13.93
2024-01-06T02:52:23.991Z,15.52
2024-01-06T02:54:23.247Z,12.88
2024-01-06T02:56:20.357Z,11.63
2024-01-06T02:58:18.339Z,13.15
2024-01-06T03:00:16.941Z,15.00
2024-01-06T03:02:15.096Z,13.35
2024-01-06T03:04:13.138Z,13.45
2024-01-06T03:06:11.234Z,13.90
2024-01-06T03:08:09.359Z,11.73
2024-01-06T03:10:08.112Z,13.27
2024-01-06T03:12:07.133Z,15.43
2024-01-06T03:14:05.291Z,13.02
2024-01-06T03:16:04.435Z,13.68
2024-01-06T03:18:02.493Z,11.50
2024-01-06T03:20:00.654Z,12.52
2024-01-06T03:21:57.760Z,12.73
2024-01-06T03:23:56.454Z,11.52
2024-01-06T03:25:55.893Z,11.15
2024-01-06T03:27:54.500Z,9.77
2024-01-06T03:29:55.566Z,10.65
2024-01-06T03:31:53.436Z,10.52
2024-01-06T03:33:52.954Z,10.68
2024-01-06T03:35:50.095Z,10.68
2024-01-06T03:37:48.139Z,10.63
2024-01-06T03:39:45.090Z,11.60
2024-01-06T03:41:44.596Z,9.63
2024-01-06T03:43:41.625Z,7.28
2024-01-06T03:45:39.606Z,8.63
2024-01-06T03:47:37.856Z,8.98
2024-01-06T03:49:36.169Z,8.07
2024-01-06T03:51:33.196Z,5.47
2024-01-06T03:53:31.234Z,7.43
2024-01-06T03:55:29.807Z,8.57
2024-01-06T03:57:28.198Z,9.18
2024-01-06T03:59:26.290Z,8.73
2024-01-06T04:01:23.469Z,8.43
2024-01-06T04:03:21.423Z,7.68
2024-01-06T04:05:18.882Z,7.28
2024-01-06T04:07:16.961Z,7.25
2024-01-06T04:09:17.874Z,7.25
2024-01-06T04:11:16.876Z,7.18
2024-01-06T04:13:16.539Z,6.22
2024-01-06T04:15:14.611Z,6.75
2024-01-06T04:17:12.517Z,8.23
2024-01-06T04:19:12.468Z,7.22
2024-01-06T04:21:10.198Z,6.65
2024-01-06T04:23:08.133Z,6.45
2024-01-06T04:25:06.525Z,18.98
2024-01-06T04:27:04.662Z,8.15
2024-01-06T04:29:03.962Z,7.80
2024-01-06T04:31:01.936Z,8.68
2024-01-06T04:33:00.269Z,10.25
2024-01-06T04:34:58.744Z,11.13
2024-01-06T04:36:59.678Z,10.73
2024-01-06T04:38:56.808Z,12.05
2024-01-06T04:40:54.785Z,10.80
2024-01-06T04:42:51.902Z,10.68
2024-01-06T04:44:51.372Z,12.55
2024-01-06T04:46:49.191Z,10.98
2024-01-06T04:48:47.475Z,11.93
2024-01-06T04:50:45.546Z,12.18
2024-01-06T04:52:43.652Z,11.98
2024-01-06T04:54:40.650Z,13.57
2024-01-06T04:56:38.543Z,11.73
2024-01-06T04:58:36.786Z,12.90
2024-01-06T05:00:37.357Z,12.27
2024-01-06T05:02:36.190Z,12.32
2024-01-06T05:04:34.088Z,12.88
2024-01-06T05:06:32.361Z,15.48
2024-01-06T05:08:32.163Z,11.55
2024-01-06T05:10:30.158Z,12.75
2024-01-06T05:12:28.263Z,12.88
2024-01-06T05:14:26.199Z,13.95
2024-01-06T05:16:25.471Z,11.40
2024-01-06T05:18:23.751Z,12.38
2024-01-06T05:20:20.648Z,13.10
2024-01-06T05:22:18.760Z,10.88
2024-01-06T05:24:16.869Z,13.15
2024-01-06T05:26:14.991Z,12.98
2024-01-06T05:28:13.138Z,12.80
2024-01-06T05:30:11.695Z,14.95
2024-01-06T05:32:10.289Z,12.85
2024-01-06T05:34:08.546Z,14.23
2024-01-06T05:36:06.901Z,13.32
2024-01-06T05:38:05.180Z,15.07
2024-01-06T05:40:05.052Z,13.45
2024-01-06T05:42:02.195Z,12.52
2024-01-06T05:44:00.138Z,11.82
2024-01-06T05:45:58.014Z,11.82
2024-01-06T05:47:57.533Z,8.43
2024-01-06T05:49:54.732Z,10.25
2024-01-06T05:51:52.870Z,5.40
2024-01-06T05:53:51.196Z,4.97
2024-01-06T05:55:49.298Z,5.78
2024-01-06T05:57:47.310Z,4.32
2024-01-06T05:59:45.314Z,3.47
2024-01-06T06:01:44.621Z,2.50
2024-01-06T06:03:43.112Z,3.45
2024-01-06T06:05:41.196Z,3.30
2024-01-06T06:07:40.955Z,3.25
2024-01-06T06:09:41.155Z,1.33
2024-01-06T06:11:39.377Z,2.13
2024-01-06T06:13:37.278Z,1.77
2024-01-06T06:15:35.535Z,4.45
2024-01-06T06:17:36.498Z,2.55
2024-01-06T06:19:35.980Z,2.97
2024-01-06T06:21:34.272Z,2.53
2024-01-06T06:23:32.424Z,1.73
2024-01-06T06:25:30.440Z,2.15
2024-01-06T06:27:28.936Z,2.83
2024-01-06T06:29:27.411Z,2.17
2024-01-06T06:31:25.461Z,2.03
2024-01-06T06:33:23.627Z,1.77
2024-01-06T06:35:22.941Z,1.67
2024-01-06T06:37:21.077Z,2.53
2024-01-06T06:39:19.655Z,3.63
2024-01-06T06:41:17.341Z,2.92
2024-01-06T06:43:18.410Z,3.40
2024-01-06T06:45:17.986Z,3.92
2024-01-06T06:47:15.917Z,4.38
2024-01-06T06:49:14.125Z,3.40
2024-01-06T06:51:13.661Z,3.53
2024-01-06T06:53:11.829Z,2.33
2024-01-06T06:55:09.982Z,2.65
2024-01-06T06:57:08.034Z,3.42
2024-01-06T06:59:06.501Z,4.13
2024-01-06T07:01:03.801Z,5.68
2024-01-06T07:03:02.040Z,3.47
2024-01-06T07:05:00.374Z,4.35
2024-01-06T07:06:59.771Z,4.30
2024-01-06T07:08:57.887Z,5.07
2024-01-06T07:10:54.869Z,3.80
2024-01-06T07:12:52.950Z,4.70
2024-01-06T07:14:51.096Z,4.65
2024-01-06T07:16:49.150Z,6.13
2024-01-06T07:18:47.638Z,4.25
2024-01-06T07:20:45.857Z,9.70
2024-01-06T07:22:45.183Z,6.63
2024-01-06T07:24:43.258Z,6.15
2024-01-06T07:26:41.410Z,3.92
2024-01-06T07:28:39.593Z,4.70
2024-01-06T07:30:37.771Z,4.15
2024-01-06T07:32:35.741Z,3.25
2024-01-06T07:34:34.283Z,3.33
2024-01-06T07:36:32.543Z,3.22
2024-01-06T07:38:32.765Z,4.03
2024-01-06T07:40:30.772Z,3.92
2024-01-06T07:42:28.919Z,3.30
2024-01-06T07:44:27.042Z,2.45
2024-01-06T07:46:25.008Z,3.25
2024-01-06T07:48:22.325Z,3.97
2024-01-06T07:50:20.560Z,3.58
2024-01-06T07:52:18.148Z,4.78
2024-01-06T07:54:19.017Z,3.95
2024-01-06T07:56:17.106Z,4.28
2024-01-06T07:58:14.359Z,4.30
2024-01-06T08:00:15.817Z,8.07
2024-01-06T08:02:13.740Z,7.25
2024-01-06T08:04:10.957Z,7.80
2024-01-06T08:06:09.379Z,8.55
2024-01-06T08:08:07.807Z,8.93
2024-01-06T08:10:06.919Z,9.88
2024-01-06T08:12:05.242Z,11.38
2024-01-06T08:14:02.794Z,10.63
2024-01-06T08:16:01.021Z,11.52
2024-01-06T08:17:59.151Z,10.60
2024-01-06T08:19:56.397Z,9.77
2024-01-06T08:21:54.483Z,9.75
2024-01-06T08:23:52.575Z,10.57
2024-01-06T08:25:51.791Z,10.45
2024-01-06T08:27:49.928Z,10.93
2024-01-06T08:29:47.958Z,15.90
2024-01-06T08:31:46.101Z,13.20
2024-01-06T08:33:44.434Z,10.48
2024-01-06T08:35:42.604Z,8.05
2024-01-06T08:37:40.606Z,7.63
2024-01-06T08:39:38.710Z,7.00
2024-01-06T08:41:38.206Z,8.95
2024-01-06T08:43:36.189Z,8.02
2024-01-06T08:45:34.265Z,9.93
2024-01-06T08:47:32.495Z,9.52
2024-01-06T08:49:30.831Z,7.72
2024-01-06T08:51:28.851Z,9.00
2024-01-06T08:53:27.146Z,6.53
2024-01-06T08:55:24.112Z,6.80
2024-01-06T08:57:23.613Z,8.90
2024-01-06T08:59:22.202Z,6.95
2024-01-06T09:01:20.323Z,7.25
2024-01-06T09:03:18.866Z,7.07
2024-01-06T09:05:16.034Z,6.47
2024-01-06T09:07:14.104Z,6.13
2024-01-06T09:09:12.175Z,5.50
2024-01-06T09:11:10.337Z,5.80
2024-01-06T09:13:09.825Z,5.75
2024-01-06T09:15:08.162Z,10.05
2024-01-06T09:17:06.281Z,6.35
2024-01-06T09:19:04.649Z,4.63
2024-01-06T09:21:02.760Z,6.68
2024-01-06T09:23:00.896Z,4.97
2024-01-06T09:24:59.028Z,6.05
2024-01-06T09:26:57.180Z,4.15
2024-01-06T09:28:57.113Z,8.05
2024-01-06T09:30:57.215Z,4.35
2024-01-06T09:32:55.496Z,4.55
2024-01-06T09:34:57.336Z,5.28
2024-01-06T09:36:55.705Z,5.50
2024-01-06T09:38:53.741Z,5.45
2024-01-06T09:40:51.923Z,5.60
2024-01-06T09:42:48.929Z,4.47
2024-01-06T09:44:48.374Z,4.65
2024-01-06T09:46:46.550Z,4.00
2024-01-06T09:48:45.558Z,4.47
2024-01-06T09:50:44.514Z,3.65
2024-01-06T09:52:44.322Z,3.72
2024-01-06T09:54:43.859Z,3.28
2024-01-06T09:56:40.839Z,4.63
2024-01-06T09:58:40.041Z,4.15
2024-01-06T10:00:39.587Z,4.00
2024-01-06T10:02:38.420Z,4.88
2024-01-06T10:04:39.459Z,2.90
2024-01-06T10:06:37.833Z,3.35
2024-01-06T10:08:36.437Z,3.33
2024-01-06T10:10:35.659Z,4.22
2024-01-06T10:12:33.372Z,3.03
2024-01-06T10:14:31.602Z,4.22
2024-01-06T10:16:31.206Z,2.83
2024-01-06T10:18:31.208Z,4.85
2024-01-06T10:20:29.413Z,4.60
2024-01-06T10:22:27.483Z,4.90
2024-01-06T10:24:25.505Z,3.03
2024-01-06T10:26:22.643Z,2.80
2024-01-06T10:28:20.659Z,3.13
2024-01-06T10:30:19.710Z,3.13
2024-01-06T10:32:22.102Z,4.18
2024-01-06T10:34:20.444Z,3.80
2024-01-06T10:36:19.120Z,2.88
2024-01-06T10:38:19.113Z,1.45
2024-01-06T10:40:18.332Z,3.10
2024-01-06T10:42:16.289Z,2.72
2024-01-06T10:44:15.245Z,3.83
2024-01-06T10:46:13.782Z,2.50
2024-01-06T10:48:14.529Z,2.15
2024-01-06T10:50:12.971Z,2.90
2024-01-06T10:52:12.402Z,2.78
2024-01-06T10:54:10.854Z,2.92
2024-01-06T10:56:11.592Z,2.17
2024-01-06T10:58:10.296Z,3.35
2024-01-06T11:00:11.067Z,2.55
2024-01-06T11:02:10.262Z,2.90
2024-01-06T11:04:10.621Z,5.22
2024-01-06T11:06:12.611Z,4.10
2024-01-06T11:08:11.714Z,4.00
2024-01-06T11:10:13.541Z,3.20
2024-01-06T11:12:10.639Z,3.53
2024-01-06T11:14:21.665Z,3.53
2024-01-06T11:16:40.544Z,3.22
2024-01-06T11:18:41.811Z,3.15
2024-01-06T11:20:41.507Z,5.90
2024-01-06T11:22:41.356Z,3.13
2024-01-06T11:24:40.292Z,11.00
2024-01-06T11:26:41.487Z,9.00
2024-01-06T11:28:45.973Z,7.00
2024-01-06T11:32:47.833Z,3.17
2024-01-06T11:34:48.509Z,2.70
2024-01-06T11:36:50.250Z,3.15
2024-01-06T11:38:52.126Z,4.47
2024-01-06T11:40:49.102Z,4.78
2024-01-06T11:42:48.301Z,3.92
2024-01-06T11:44:47.028Z,5.35
2024-01-06T11:46:45.934Z,5.50
2024-01-06T11:48:48.601Z,4.10
2024-01-06T11:50:46.511Z,4.50
2024-01-06T11:52:46.076Z,4.25
2024-01-06T11:54:44.316Z,4.35
2024-01-06T11:56:42.426Z,3.40
2024-01-06T11:58:41.602Z,3.00
2024-01-06T12:00:41.876Z,4.30
2024-01-06T12:02:40.664Z,3.85
2024-01-06T12:04:38.503Z,2.95
2024-01-06T12:06:35.722Z,3.05
2024-01-06T12:08:35.332Z,2.90
2024-01-06T12:10:34.066Z,0.82
2024-01-06T12:12:31.463Z,2.30
2024-01-06T12:14:30.552Z,1.83
2024-01-06T12:16:28.721Z,1.23
2024-01-06T12:18:27.497Z,12.45
2024-01-06T12:20:25.838Z,10.43
2024-01-06T12:22:23.940Z,7.10
2024-01-06T12:24:23.092Z,2.15
2024-01-06T12:26:22.288Z,1.15
2024-01-06T12:28:24.578Z,3.13
2024-01-06T12:30:26.969Z,1.67
2024-01-06T12:32:26.536Z,0.90
2024-01-06T12:34:23.881Z,1.20
2024-01-06T12:36:26.913Z,2.40
2024-01-06T12:38:28.976Z,1.58
2024-01-06T12:40:28.367Z,1.50
2024-01-06T12:42:26.451Z,1.13
2024-01-06T12:44:24.578Z,1.98
2024-01-06T12:46:22.812Z,1.40
2024-01-06T12:48:20.811Z,1.35
2024-01-06T12:50:19.504Z,2.83
2024-01-06T12:52:17.288Z,17.40
2024-01-06T12:54:15.334Z,9.88
2024-01-06T12:56:15.881Z,1.75
2024-01-06T12:58:13.844Z,2.30
2024-01-06T13:00:13.402Z,2.22
2024-01-06T13:02:11.638Z,2.13
2024-01-06T13:04:10.438Z,2.13
2024-01-06T13:06:07.640Z,1.33
2024-01-06T13:08:06.292Z,2.17
2024-01-06T13:10:04.478Z,1.23
2024-01-06T13:12:03.727Z,1.10
2024-01-06T13:14:01.672Z,1.15
2024-01-06T13:16:01.708Z,1.70
2024-01-06T13:17:59.912Z,2.05
2024-01-06T13:19:58.412Z,1.65
2024-01-06T13:21:56.673Z,0.85
2024-01-06T13:23:53.846Z,1.08
2024-01-06T13:25:51.899Z,1.83
2024-01-06T13:27:51.670Z,1.15
2024-01-06T13:29:48.781Z,2.42
2024-01-06T13:31:47.251Z,1.83
2024-01-06T13:33:44.410Z,1.88
2024-01-06T13:35:42.816Z,1.35
2024-01-06T13:37:40.225Z,1.77
2024-01-06T13:39:38.321Z,1.27
2024-01-06T13:41:36.652Z,1.70
2024-01-06T13:43:36.006Z,1.30
2024-01-06T13:45:34.907Z,1.80
2024-01-06T13:47:33.048Z,1.95
2024-01-06T13:49:30.200Z,1.17
2024-01-06T13:51:28.883Z,1.33
2024-01-06T13:53:27.039Z,2.25
2024-01-06T13:55:25.165Z,3.50
2024-01-06T13:57:23.110Z,0.63
2024-01-06T13:59:22.464Z,2.00
2024-01-06T14:01:20.757Z,1.35
2024-01-06T14:03:18.982Z,1.42
2024-01-06T14:05:16.256Z,1.33
2024-01-06T14:07:15.091Z,1.75
2024-01-06T14:09:13.496Z,2.40
2024-01-06T14:11:11.537Z,1.35
2024-01-06T14:13:09.899Z,1.15
2024-01-06T14:15:10.427Z,1.55
2024-01-06T14:17:08.475Z,1.77
2024-01-06T14:19:06.626Z,1.48
2024-01-06T14:21:04.965Z,1.98
2024-01-06T14:23:03.215Z,1.30
2024-01-06T14:25:04.941Z,1.40
2024-01-06T14:27:04.993Z,2.53
2024-01-06T14:29:03.128Z,15.20
2024-01-06T14:31:02.928Z,3.40
2024-01-06T14:33:01.413Z,1.75
2024-01-06T14:35:00.105Z,1.90
2024-01-06T14:36:58.135Z,2.65
2024-01-06T14:38:56.181Z,2.28
2024-01-06T14:40:54.255Z,3.55
2024-01-06T14:42:52.134Z,2.67
2024-01-06T14:44:50.351Z,3.20
2024-01-06T14:46:49.748Z,3.47
2024-01-06T14:48:48.037Z,3.53
2024-01-06T14:50:46.415Z,3.22
2024-01-06T14:52:44.438Z,2.85
2024-01-06T14:54:42.471Z,3.40
2024-01-06T14:56:42.400Z,3.75
2024-01-06T14:58:40.621Z,5.10
2024-01-06T15:00:37.851Z,6.95
2024-01-06T15:02:40.958Z,4.95
2024-01-06T15:04:38.805Z,4.43
2024-01-06T15:06:36.945Z,6.93
2024-01-06T15:08:35.004Z,4.78
2024-01-06T15:10:32.935Z,7.85
2024-01-06T15:12:30.968Z,10.05
2024-01-06T15:14:28.893Z,5.53
2024-01-06T15:16:26.839Z,6.25
2024-01-06T15:18:26.591Z,4.38
2024-01-06T15:20:24.373Z,3.22
2024-01-06T15:22:23.807Z,5.65
2024-01-06T15:24:24.790Z,5.38
2024-01-06T15:26:26.232Z,6.15
2024-01-06T15:28:24.301Z,9.20
2024-01-06T15:30:21.683Z,6.43
2024-01-06T15:32:19.826Z,6.53
2024-01-06T15:34:19.860Z,4.75
2024-01-06T15:36:17.392Z,6.00
2024-01-06T15:38:15.780Z,5.45
2024-01-06T15:40:14.028Z,6.18
2024-01-06T15:42:12.108Z,3.90
2024-01-06T15:44:10.062Z,6.10
2024-01-06T15:46:08.849Z,20.88
2024-01-06T15:48:07.616Z,9.45
2024-01-06T15:50:08.901Z,24.85
2024-01-06T15:52:13.001Z,11.73
2024-01-06T15:54:13.785Z,9.32
2024-01-06T15:56:11.677Z,16.13
2024-01-06T15:58:09.683Z,16.77
2024-01-06T16:00:08.247Z,19.50
2024-01-06T16:02:06.293Z,14.68
2024-01-06T16:04:04.043Z,11.20
2024-01-06T16:06:03.720Z,9.00
2024-01-06T16:08:01.780Z,9.90
2024-01-06T16:09:59.886Z,10.15
2024-01-06T16:11:59.569Z,10.23
2024-01-06T16:13:57.567Z,9.68
2024-01-06T16:15:56.574Z,12.20
2024-01-06T16:17:54.869Z,17.20
2024-01-06T16:19:52.202Z,13.10
2024-01-06T16:21:59.250Z,8.77
2024-01-06T16:24:01.455Z,9.43
2024-01-06T16:26:02.554Z,15.93
2024-01-06T16:28:00.867Z,11.90
2024-01-06T16:29:58.425Z,13.25
2024-01-06T16:31:56.706Z,10.90
2024-01-06T16:33:55.138Z,33.55
2024-01-06T16:35:52.202Z,17.63
2024-01-06T16:37:52.615Z,10.40
2024-01-06T16:39:52.319Z,10.00
2024-01-06T16:41:50.200Z,10.90
2024-01-06T16:43:48.157Z,12.07
2024-01-06T16:45:45.725Z,13.27
2024-01-06T16:47:44.160Z,19.55
2024-01-06T16:49:42.292Z,16.25
2024-01-06T16:51:40.498Z,17.60
2024-01-06T16:53:40.034Z,11.25
2024-01-06T16:55:38.194Z,11.68
2024-01-06T16:57:36.178Z,15.30
2024-01-06T16:59:35.034Z,11.98
2024-01-06T17:01:33.469Z,11.00
2024-01-06T17:03:31.611Z,10.55
2024-01-06T17:05:29.934Z,9.95
2024-01-06T17:07:28.186Z,9.02
2024-01-06T17:09:27.703Z,10.18
2024-01-06T17:11:26.434Z,10.68
2024-01-06T17:13:24.568Z,9.25
2024-01-06T17:15:25.691Z,8.70
2024-01-06T17:17:23.857Z,11.65
2024-01-06T17:19:21.871Z,9.35
2024-01-06T17:21:19.790Z,8.85
2024-01-06T17:23:17.805Z,8.38
2024-01-06T17:25:17.602Z,8.35
2024-01-06T17:27:16.994Z,10.18
2024-01-06T17:29:14.215Z,8.10
2024-01-06T17:31:12.120Z,10.02
2024-01-06T17:33:09.302Z,7.60
2024-01-06T17:35:08.649Z,8.32
2024-01-06T17:37:05.873Z,6.50
2024-01-06T17:39:05.274Z,6.68
2024-01-06T17:41:06.389Z,6.13
2024-01-06T17:43:04.468Z,5.45
2024-01-06T17:45:04.416Z,4.05
2024-01-06T17:47:01.497Z,5.13
2024-01-06T17:48:59.620Z,4.72
2024-01-06T17:50:56.592Z,4.53
2024-01-06T17:52:54.480Z,4.55
2024-01-06T17:54:51.475Z,3.55
2024-01-06T17:56:50.912Z,3.33
2024-01-06T17:58:49.699Z,4.75
2024-01-06T18:00:46.926Z,3.97
2024-01-06T18:02:48.384Z,4.75
2024-01-06T18:04:46.116Z,4.25
2024-01-06T18:06:44.929Z,4.50
2024-01-06T18:08:43.270Z,3.63
2024-01-06T18:10:42.348Z,3.03
2024-01-06T18:12:42.914Z,3.80
2024-01-06T18:14:41.523Z,2.60
2024-01-06T18:16:42.184Z,2.78
2024-01-06T18:18:40.899Z,2.92
2024-01-06T18:20:40.813Z,3.78
2024-01-06T18:22:39.693Z,3.35
2024-01-06T18:24:37.782Z,2.78
2024-01-06T18:26:36.280Z,4.40
2024-01-06T18:28:34.727Z,4.65
2024-01-06T18:30:32.952Z,3.80
2024-01-06T18:32:30.929Z,3.03
2024-01-06T18:34:29.429Z,2.92
2024-01-06T18:36:27.721Z,5.20
2024-01-06T18:38:27.994Z,5.40
2024-01-06T18:40:30.041Z,3.25
2024-01-06T18:42:27.341Z,3.28
2024-01-06T18:44:27.010Z,3.13
2024-01-06T18:46:23.951Z,3.97
2024-01-06T18:48:23.026Z,6.70
2024-01-06T18:50:24.120Z,4.22
2024-01-06T18:52:22.637Z,4.00
2024-01-06T18:54:30.740Z,2.97
2024-01-06T18:56:32.382Z,2.72
2024-01-06T18:58:32.680Z,1.88
2024-01-06T19:00:32.197Z,2.15
2024-01-06T19:02:30.124Z,1.77
2024-01-06T19:04:28.233Z,2.75
2024-01-06T19:06:26.334Z,2.38
2024-01-06T19:08:23.164Z,1.17
2024-01-06T19:10:21.226Z,1.15
2024-01-06T19:12:19.400Z,2.15
2024-01-06T19:14:17.487Z,2.45
2024-01-06T19:16:15.932Z,0.85
2024-01-06T19:18:14.319Z,0.60
2024-01-06T19:20:11.813Z,0.68
2024-01-06T19:22:10.045Z,0.82
2024-01-06T19:24:07.240Z,1.27
2024-01-06T19:26:05.922Z,4.10
2024-01-06T19:28:04.320Z,2.78
2024-01-06T19:30:02.474Z,4.22
2024-01-06T19:32:04.367Z,2.88
2024-01-06T19:34:02.853Z,5.03
2024-01-06T19:36:00.888Z,2.88
2024-01-06T19:37:57.876Z,2.42
2024-01-06T19:39:56.109Z,1.88
2024-01-06T19:41:54.130Z,1.60
2024-01-06T19:43:52.198Z,1.63
2024-01-06T19:45:53.198Z,2.70
2024-01-06T19:47:52.756Z,2.95
2024-01-06T19:49:50.832Z,2.80
2024-01-06T19:51:49.790Z,1.92
2024-01-06T19:53:47.927Z,2.03
2024-01-06T19:55:45.843Z,1.83
2024-01-06T19:57:42.854Z,3.20
2024-01-06T19:59:42.645Z,1.73
2024-01-06T20:01:39.740Z,1.95
2024-01-06T20:03:39.212Z,2.30
2024-01-06T20:05:37.298Z,1.73
2024-01-06T20:07:34.487Z,2.85
2024-01-06T20:09:32.689Z,2.53
2024-01-06T20:11:30.745Z,2.30
2024-01-06T20:13:27.869Z,2.70
2024-01-06T20:15:26.175Z,7.80
2024-01-06T20:17:24.503Z,4.90
2024-01-06T20:19:24.910Z,3.03
2024-01-06T20:21:23.323Z,12.48
2024-01-06T20:23:20.332Z,5.22
2024-01-06T20:25:18.621Z,4.10
2024-01-06T20:27:17.010Z,2.47
2024-01-06T20:29:14.233Z,2.53
2024-01-06T20:31:12.711Z,1.92
2024-01-06T20:33:11.324Z,5.10
2024-01-06T20:35:10.640Z,5.20
2024-01-06T20:37:08.826Z,2.78
2024-01-06T20:39:07.124Z,2.17
2024-01-06T20:41:08.281Z,3.22
2024-01-06T20:43:08.861Z,3.15
2024-01-06T20:45:07.566Z,3.15
2024-01-06T20:47:05.794Z,1.60
2024-01-06T20:49:04.427Z,3.60
2024-01-06T20:51:04.102Z,3.15
2024-01-06T20:53:02.333Z,2.40
2024-01-06T20:55:00.462Z,3.33
2024-01-06T20:56:59.265Z,4.28
2024-01-06T20:58:57.728Z,3.22
2024-01-06T21:00:55.956Z,3.28
2024-01-06T21:02:54.305Z,3.38
2024-01-06T21:04:51.413Z,3.45
2024-01-06T21:06:50.853Z,3.67
2024-01-06T21:08:48.939Z,2.55
2024-01-06T21:10:47.061Z,4.63
2024-01-06T21:12:45.284Z,4.15
2024-01-06T21:14:43.378Z,6.65
2024-01-06T21:16:40.751Z,5.28
2024-01-06T21:18:39.003Z,4.50
2024-01-06T21:20:37.196Z,6.18
2024-01-06T21:22:39.448Z,6.60
2024-01-06T21:24:37.354Z,3.45
2024-01-06T21:26:36.443Z,5.05
2024-01-06T21:28:34.873Z,4.10
2024-01-06T21:30:35.833Z,4.50
2024-01-06T21:32:32.963Z,4.68
2024-01-06T21:34:31.186Z,6.43
2024-01-06T21:36:29.826Z,4.25
2024-01-06T21:38:28.282Z,6.38
2024-01-06T21:40:28.197Z,7.03
2024-01-06T21:42:25.552Z,4.45
2024-01-06T21:44:24.360Z,5.25
2024-01-06T21:46:21.356Z,5.85
2024-01-06T21:48:19.616Z,4.00
2024-01-06T21:50:17.748Z,3.45
2024-01-06T21:52:14.790Z,5.38
2024-01-06T21:54:14.294Z,5.15
2024-01-06T21:56:12.368Z,6.35
2024-01-06T21:58:10.514Z,5.35
2024-01-06T22:00:12.232Z,4.32
2024-01-06T22:02:10.226Z,6.85
2024-01-06T22:04:08.611Z,5.60
2024-01-06T22:06:06.881Z,7.07
2024-01-06T22:08:05.123Z,6.20
2024-01-06T22:10:03.844Z,6.25
2024-01-06T22:12:02.068Z,7.97
2024-01-06T22:14:02.069Z,8.02
2024-01-06T22:15:59.059Z,9.07
2024-01-06T22:17:57.145Z,7.93
2024-01-06T22:20:43.831Z,7.05
2024-01-06T22:23:38.301Z,6.32
2024-01-06T22:25:41.277Z,7.25
2024-01-06T22:27:39.643Z,9.40
2024-01-06T22:30:00.261Z,6.30
2024-01-06T22:32:19.287Z,4.53
2024-01-06T22:34:18.907Z,5.25
2024-01-06T22:36:17.414Z,5.72
2024-01-06T22:38:16.474Z,5.85
2024-01-06T22:40:16.375Z,5.00
2024-01-06T22:42:15.813Z,7.20
2024-01-06T22:44:14.100Z,6.43
2024-01-06T22:46:12.444Z,5.90
2024-01-06T22:48:10.698Z,12.02
2024-01-06T22:50:09.288Z,12.50
2024-01-06T22:52:07.603Z,13.68
2024-01-06T22:54:05.499Z,11.88
2024-01-06T22:56:04.544Z,11.07
2024-01-06T22:58:03.993Z,7.72
2024-01-06T23:00:00.851Z,6.43
2024-01-06T23:01:58.994Z,6.75
2024-01-06T23:03:56.247Z,6.45
2024-01-06T23:05:54.583Z,11.45
2024-01-06T23:07:52.725Z,9.30
2024-01-06T23:09:50.680Z,5.60
2024-01-06T23:11:48.676Z,8.50
2024-01-06T23:13:47.970Z,6.60
2024-01-06T23:15:46.256Z,6.45
2024-01-06T23:17:56.479Z,5.35
2024-01-06T23:19:54.943Z,4.05
2024-01-06T23:21:53.043Z,5.28
2024-01-06T23:23:49.967Z,4.95
2024-01-06T23:25:48.092Z,5.15
2024-01-06T23:27:46.177Z,5.70
2024-01-06T23:29:45.486Z,4.95
2024-01-06T23:31:43.661Z,5.10
2024-01-06T23:33:41.702Z,5.55
2024-01-06T23:35:39.975Z,5.45
2024-01-06T23:37:41.024Z,5.38
2024-01-06T23:39:40.567Z,6.15
2024-01-06T23:41:37.453Z,6.22
2024-01-06T23:43:38.919Z,6.40
2024-01-06T23:45:37.891Z,4.72
2024-01-06T23:47:36.124Z,5.88
2024-01-06T23:49:33.099Z,6.22
2024-01-06T23:51:31.464Z,5.18
2024-01-06T23:53:29.511Z,6.43
2024-01-06T23:55:26.492Z,6.65
2024-01-06T23:57:26.707Z,5.07
2024-01-06T23:59:25.002Z,4.80
